Time;durP1;ratioP1;P1;durP2;ratioP2;P2;SDS_P1;SDS_P2;PMS_P1;PMS_P2;Temp;Humidity;BMP_temperature;BMP_pressure;BME280_temperature;BME280_humidity;BME280_pressure;Samples;Min_cycle;Max_cycle;Signal;HPM_P1;HPM_P2
2022/03/31 00:00:58;;;;;;;62.97;33.85;;;7.70;99.90;;;6.63;98.69;95589.38;4989531;28;20438;-73
2022/03/31 00:03:24;;;;;;;60.95;30.65;;;7.70;99.90;;;6.71;98.57;95591.44;4991225;28;20429;-73
2022/03/31 00:05:51;;;;;;;66.72;33.03;;;7.80;99.90;;;6.69;98.48;95589.06;4990046;28;20418;-73
2022/03/31 00:08:18;;;;;;;53.35;29.98;;;7.80;99.90;;;6.69;98.69;95589.06;4991290;28;20502;-73
2022/03/31 00:10:47;;;;;;;65.13;32.60;;;7.80;99.90;;;6.71;98.63;95580.94;4990829;28;20749;-73
2022/03/31 00:13:15;;;;;;;61.72;32.53;;;7.80;99.90;;;6.69;98.69;95588.31;4990127;28;20517;-73
2022/03/31 00:15:42;;;;;;;56.28;29.38;;;7.80;99.90;;;6.74;98.77;95580.41;4991145;28;20434;-73
2022/03/31 00:18:12;;;;;;;55.40;28.73;;;7.80;99.90;;;6.79;98.94;95575.09;4991217;28;20402;-73
2022/03/31 00:20:38;;;;;;;63.13;32.47;;;7.90;99.90;;;6.79;99.24;95575.88;4990699;28;20474;-73
2022/03/31 00:23:08;;;;;;;56.90;30.65;;;7.90;99.90;;;6.79;99.33;95573.25;4991025;28;20407;-73
2022/03/31 00:25:35;;;;;;;58.75;30.13;;;7.90;99.90;;;6.77;99.45;95567.47;4991072;28;20841;-73
2022/03/31 00:28:03;;;;;;;61.97;31.92;;;7.90;99.90;;;6.65;99.41;95563.59;4991003;28;20982;-73
2022/03/31 00:30:30;;;;;;;55.78;29.17;;;7.80;99.90;;;6.74;99.46;95562.00;4990575;28;20823;-73
2022/03/31 00:32:57;;;;;;;47.35;27.30;;;7.80;99.90;;;6.75;99.47;95561.72;4990926;28;20517;-73
2022/03/31 00:35:25;;;;;;;46.90;26.70;;;7.90;99.90;;;6.77;99.56;95562.22;4991064;28;20485;-73
2022/03/31 00:37:51;;;;;;;48.83;25.15;;;7.90;99.90;;;6.79;99.65;95554.06;4991082;28;20422;-73
2022/03/31 00:40:21;;;;;;;51.70;28.02;;;7.90;99.90;;;6.78;99.79;95555.13;4990370;28;20429;-73
2022/03/31 00:42:49;;;;;;;63.22;32.92;;;7.90;99.90;;;6.72;99.87;95540.44;4990782;28;20407;-73
2022/03/31 00:45:18;;;;;;;54.05;29.00;;;7.80;99.90;;;6.72;99.85;95540.44;4990795;28;20422;-73
2022/03/31 00:47:45;;;;;;;49.47;26.23;;;7.80;99.90;;;6.71;99.79;95536.22;4990963;28;20403;-73
2022/03/31 00:50:13;;;;;;;49.03;26.52;;;7.80;99.90;;;6.67;99.73;95528.13;4990334;28;20407;-73
2022/03/31 00:52:41;;;;;;;56.83;28.85;;;7.80;99.90;;;6.63;99.98;95528.91;4990799;28;20892;-73
2022/03/31 00:55:11;;;;;;;54.47;28.33;;;7.80;99.90;;;6.59;99.75;95521.59;4990795;28;21039;-73
2022/03/31 00:57:38;;;;;;;50.70;27.42;;;7.70;99.90;;;6.60;99.72;95527.63;4990786;28;20401;-73
2022/03/31 01:00:07;;;;;;;53.85;28.77;;;7.70;99.90;;;6.61;99.80;95529.19;4990451;28;20553;-72
2022/03/31 01:02:35;;;;;;;51.00;27.77;;;7.70;99.90;;;6.65;99.75;95526.81;4990491;28;20521;-73
2022/03/31 01:05:02;;;;;;;52.22;27.42;;;7.70;99.90;;;6.66;99.87;95531.00;4990712;28;20538;-73
2022/03/31 01:07:29;;;;;;;48.70;26.30;;;7.70;99.90;;;6.65;99.97;95526.81;4990734;28;20482;-73
2022/03/31 01:09:57;;;;;;;47.45;25.73;;;7.80;99.90;;;6.63;99.95;95524.44;4990650;28;20509;-73
2022/03/31 01:12:23;;;;;;;53.70;29.85;;;7.80;99.90;;;6.57;100.00;95520.28;4990259;28;20403;-73
2022/03/31 01:15:07;;;;;;;52.45;29.55;;;7.70;99.90;;;6.54;100.00;95512.94;4990593;28;20406;-73
2022/03/31 01:17:34;;;;;;;47.72;26.52;;;7.60;99.90;;;6.57;99.94;95515.81;4994449;28;20886;-73
2022/03/31 01:20:00;;;;;;;40.83;24.00;;;7.70;99.90;;;6.57;99.80;95515.81;4994228;28;20489;-73
2022/03/31 01:22:30;;;;;;;42.93;25.00;;;7.70;99.90;;;6.56;99.81;95516.84;5007577;28;20410;-74
2022/03/31 01:24:58;;;;;;;38.05;23.33;;;7.70;99.90;;;6.54;99.82;95513.69;5013804;28;20913;-74
2022/03/31 01:27:25;;;;;;;38.92;23.60;;;7.70;99.90;;;6.54;99.81;95518.19;5013898;28;20474;-73
2022/03/31 01:29:51;;;;;;;36.38;21.88;;;7.60;99.90;;;6.55;99.93;95514.50;5013728;28;20410;-73
2022/03/31 01:32:17;;;;;;;34.33;21.40;;;7.70;99.90;;;6.52;99.91;95505.31;5010648;28;20910;-73
2022/03/31 01:34:43;;;;;;;35.28;22.60;;;7.60;99.90;;;6.52;100.00;95507.16;5013597;28;20411;-73
2022/03/31 01:37:09;;;;;;;38.40;22.20;;;7.70;99.90;;;6.51;99.95;95506.38;5013597;28;20409;-73
2022/03/31 01:39:36;;;;;;;37.22;21.95;;;7.60;99.90;;;6.48;99.91;95504.28;5013597;28;20413;-72
2022/03/31 01:42:04;;;;;;;39.00;24.20;;;7.60;99.90;;;6.43;99.92;95499.06;5013198;28;20548;-73
2022/03/31 01:44:30;;;;;;;34.92;21.25;;;7.60;99.90;;;6.37;99.85;95494.09;5013637;28;20432;-72
2022/03/31 01:46:56;;;;;;;35.78;22.55;;;7.50;99.90;;;6.33;99.74;95491.22;5013604;28;20886;-72
2022/03/31 01:49:22;;;;;;;42.75;24.77;;;7.40;99.90;;;6.26;99.59;95492.56;5013286;28;20401;-73
2022/03/31 01:51:48;;;;;;;36.63;23.50;;;7.40;99.90;;;6.24;99.43;95490.19;5013002;28;20488;-73
2022/03/31 01:54:14;;;;;;;39.05;22.60;;;7.40;99.90;;;6.21;99.39;95475.78;5013440;28;20500;-73
2022/03/31 01:56:41;;;;;;;38.38;22.40;;;7.40;99.90;;;6.20;99.42;95476.81;5013433;28;20413;-73
2022/03/31 01:59:09;;;;;;;35.03;22.52;;;7.40;99.90;;;6.19;99.28;95472.63;5013268;28;20403;-73
2022/03/31 02:01:35;;;;;;;37.13;22.75;;;7.30;99.90;;;6.20;99.42;95468.94;5012812;28;20960;-73
2022/03/31 02:04:00;;;;;;;33.92;20.83;;;7.40;99.90;;;6.23;99.51;95472.88;5013125;28;20408;-73
2022/03/31 02:06:26;;;;;;;32.83;20.80;;;7.30;99.90;;;6.24;99.53;95474.44;5013163;28;20896;-73
2022/03/31 02:08:52;;;;;;;35.50;21.50;;;7.40;99.90;;;6.25;99.72;95472.59;5013133;28;20400;-73
2022/03/31 02:11:19;;;;;;;38.90;22.42;;;7.40;99.90;;;6.26;99.68;95466.28;5012741;28;20420;-73
2022/03/31 02:13:45;;;;;;;39.40;22.90;;;7.40;99.90;;;6.24;99.76;95469.19;5012942;28;20411;-73
2022/03/31 02:16:13;;;;;;;37.97;21.85;;;7.40;99.90;;;6.25;99.62;95462.88;5013077;28;20428;-73
2022/03/31 02:18:39;;;;;;;35.43;21.77;;;7.40;99.90;;;6.26;99.79;95459.19;5013386;28;20450;-73
2022/03/31 02:21:05;;;;;;;42.72;25.05;;;7.40;99.90;;;6.19;99.80;95454.25;5013955;28;20827;-73
2022/03/31 02:23:33;;;;;;;36.87;23.57;;;7.40;99.90;;;6.21;99.77;95453.97;5012619;28;21248;-73
2022/03/31 02:25:59;;;;;;;44.40;25.38;;;7.40;99.90;;;6.21;99.56;95452.13;5015367;28;20497;-72
2022/03/31 02:28:25;;;;;;;43.05;24.23;;;7.40;99.90;;;6.20;99.83;95449.78;5013808;28;21032;-72
2022/03/31 02:30:51;;;;;;;47.92;26.15;;;7.30;99.90;;;6.19;99.77;95448.19;5012381;28;20397;-73
2022/03/31 02:33:18;;;;;;;51.75;28.90;;;7.30;99.90;;;6.12;99.70;95445.06;5012628;28;20404;-72
2022/03/31 02:35:44;;;;;;;44.85;25.85;;;7.20;99.90;;;6.15;99.57;95449.81;5012620;28;20619;-73
2022/03/31 02:38:10;;;;;;;50.43;27.70;;;7.30;99.90;;;6.15;99.68;95447.19;5012663;28;20923;-73
2022/03/31 02:40:36;;;;;;;42.38;24.77;;;7.30;99.90;;;6.16;99.53;95444.25;5012105;28;20416;-73
2022/03/31 02:43:03;;;;;;;46.13;25.33;;;7.30;99.90;;;6.16;99.77;95444.25;5012327;28;20436;-73
2022/03/31 02:45:29;;;;;;;38.38;22.45;;;7.30;99.90;;;6.16;99.67;95444.25;5011262;28;20742;-72
2022/03/31 02:47:55;;;;;;;38.88;23.10;;;7.30;99.90;;;6.17;99.82;95445.03;5012530;28;20411;-73
2022/03/31 02:50:22;;;;;;;36.43;22.33;;;7.30;99.90;;;6.18;99.84;95439.53;5011939;28;20972;-73
2022/03/31 02:55:32;;;;;;;40.97;24.85;;;7.30;99.90;;;6.17;99.88;95435.31;5012442;28;20470;-73
2022/03/31 02:58:01;;;;;;;44.47;25.38;;;7.30;99.90;;;6.15;99.95;95424.31;5012241;28;20408;-73
2022/03/31 03:00:28;;;;;;;41.38;26.30;;;7.30;99.90;;;6.08;99.87;95426.47;5011645;28;20416;-73
2022/03/31 03:02:54;;;;;;;40.42;25.13;;;7.20;99.90;;;6.08;99.81;95421.22;5012163;28;20397;-72
2022/03/31 03:05:22;;;;;;;39.88;25.05;;;7.30;99.90;;;6.07;99.83;95421.47;5012106;28;20488;-74
2022/03/31 03:07:48;;;;;;;36.28;24.83;;;7.20;99.90;;;6.03;99.62;95420.44;5010808;28;20871;-72
2022/03/31 03:10:14;;;;;;;41.00;27.20;;;7.20;99.90;;;6.01;99.72;95412.06;5011610;28;20412;-72
2022/03/31 03:12:41;;;;;;;40.30;26.07;;;7.20;99.90;;;5.94;99.49;95422.81;5011862;28;20485;-72
2022/03/31 03:15:08;;;;;;;39.88;25.77;;;7.10;99.90;;;5.94;99.36;95422.06;5012130;28;20393;-72
2022/03/31 03:17:35;;;;;;;38.90;26.48;;;7.10;99.90;;;5.91;99.35;95420.75;5011988;28;20405;-72
2022/03/31 03:20:01;;;;;;;40.03;25.80;;;7.10;99.90;;;5.92;99.42;95424.16;5011725;28;20905;-72
2022/03/31 03:22:28;;;;;;;36.83;23.80;;;7.10;99.90;;;5.92;99.17;95421.53;5011310;28;20424;-73
2022/03/31 03:24:54;;;;;;;38.43;24.23;;;7.10;99.90;;;5.94;99.46;95408.94;5011869;28;20480;-72
2022/03/31 03:27:20;;;;;;;40.25;24.75;;;7.10;99.90;;;5.93;99.42;95405.53;5011753;28;20491;-73
2022/03/31 03:29:46;;;;;;;39.28;24.02;;;7.10;99.90;;;5.94;99.37;95414.19;5011625;28;20401;-74
2022/03/31 03:32:13;;;;;;;39.03;25.27;;;7.10;99.90;;;5.93;99.33;95402.91;5011206;28;20758;-73
2022/03/31 03:34:39;;;;;;;37.42;25.13;;;7.10;99.90;;;5.92;99.70;95405.78;5011646;28;20399;-73
2022/03/31 03:37:06;;;;;;;42.33;27.70;;;7.10;99.90;;;5.91;99.58;95410.25;5026790;28;20409;-72
2022/03/31 03:39:34;;;;;;;42.40;27.08;;;7.10;99.90;;;5.86;99.37;95407.63;5009889;28;20794;-73
2022/03/31 03:42:00;;;;;;;40.35;26.58;;;7.00;99.90;;;5.83;99.31;95408.16;5005827;28;20464;-72
2022/03/31 03:44:26;;;;;;;43.35;27.70;;;7.00;99.90;;;5.82;99.40;95407.38;5024571;23;20432;-72
2022/03/31 03:46:53;;;;;;;41.00;26.75;;;7.00;99.90;;;5.83;99.28;95408.16;5011064;28;20404;-72
2022/03/31 03:49:19;;;;;;;38.25;25.77;;;7.00;99.90;;;5.84;99.27;95409.72;5011155;28;20916;-72
2022/03/31 03:51:45;;;;;;;37.10;24.90;;;7.00;99.90;;;5.84;99.40;95409.72;5010877;28;20551;-73
2022/03/31 03:54:11;;;;;;;40.65;27.05;;;7.00;99.90;;;5.81;99.32;95408.41;5010762;28;20938;-73
2022/03/31 03:56:39;;;;;;;39.88;26.00;;;7.00;99.90;;;5.80;99.35;95403.44;5026923;28;20449;-73
2022/03/31 03:59:05;;;;;;;39.58;26.83;;;7.00;99.90;;;5.81;99.44;95399.75;5013410;28;20911;-72
2022/03/31 04:01:30;;;;;;;36.77;25.17;;;7.00;99.90;;;5.81;99.43;95402.38;5009696;28;20432;-72
2022/03/31 04:03:57;;;;;;;39.35;26.23;;;7.00;99.90;;;5.80;99.44;95401.59;5013427;28;20415;-74
2022/03/31 04:06:23;;;;;;;44.28;28.33;;;6.90;99.90;;;5.69;99.26;95396.66;5017819;28;20463;-74
2022/03/31 04:08:49;;;;;;;41.37;28.10;;;6.90;99.90;;;5.72;99.41;95402.16;5026449;28;20403;-74
2022/03/31 04:11:16;;;;;;;41.90;26.75;;;6.90;99.90;;;5.74;99.28;95394.00;5013441;28;20768;-73
2022/03/31 04:13:43;;;;;;;40.15;26.30;;;6.90;99.90;;;5.74;99.20;95396.63;5020178;28;20533;-72
2022/03/31 04:16:09;;;;;;;43.33;27.23;;;6.90;99.90;;;5.72;99.18;95399.53;5012416;28;20423;-72
2022/03/31 04:18:35;;;;;;;41.92;28.90;;;6.90;99.90;;;5.66;99.08;95402.44;5005274;28;20485;-71
2022/03/31 04:21:02;;;;;;;41.17;27.23;;;6.80;99.90;;;5.68;98.84;95397.72;5006845;28;20506;-74
2022/03/31 04:23:28;;;;;;;40.22;27.95;;;6.80;99.90;;;5.68;98.87;95401.13;5011195;28;20446;-74
2022/03/31 04:25:55;;;;;;;40.22;27.50;;;6.90;99.90;;;5.66;98.92;95392.72;5021065;28;20917;-76
2022/03/31 04:28:21;;;;;;;37.40;25.92;;;6.80;99.90;;;5.67;98.90;95398.75;5010609;28;20430;-75
2022/03/31 04:30:48;;;;;;;38.63;27.60;;;6.80;99.90;;;5.66;98.85;95392.72;5008106;28;20775;-74
2022/03/31 04:33:14;;;;;;;39.80;26.65;;;6.80;99.90;;;5.67;98.90;95398.75;5012711;28;20416;-76
2022/03/31 04:35:40;;;;;;;44.42;29.60;;;6.80;99.90;;;5.57;98.73;95394.31;5011285;28;20427;-75
2022/03/31 04:38:06;;;;;;;43.45;29.75;;;6.80;99.90;;;5.54;98.46;95396.72;5010264;28;20890;-75
2022/03/31 04:40:32;;;;;;;40.85;28.08;;;6.80;99.90;;;5.57;98.53;95396.16;5009733;28;20898;-75
2022/03/31 04:42:58;;;;;;;43.78;29.75;;;6.80;99.90;;;5.54;98.19;95392.25;5008373;28;20417;-75
2022/03/31 04:45:24;;;;;;;41.22;28.17;;;6.70;99.90;;;5.53;98.27;95390.69;5010195;28;20412;-75
2022/03/31 04:47:52;;;;;;;43.67;29.80;;;6.70;99.90;;;5.40;98.02;95389.41;5010258;28;20500;-75
2022/03/31 04:50:18;;;;;;;42.75;29.00;;;6.70;99.90;;;5.41;97.50;95390.19;5009947;28;20412;-73
2022/03/31 04:52:44;;;;;;;38.10;27.38;;;6.60;99.90;;;5.41;97.24;95392.81;5009085;28;20421;-72
2022/03/31 04:55:10;;;;;;;41.77;27.80;;;6.60;99.90;;;5.42;97.37;95392.53;5010674;28;20412;-75
2022/03/31 04:57:37;;;;;;;39.58;27.48;;;6.60;99.90;;;5.44;97.65;95392.28;5011192;28;20417;-75
2022/03/31 05:00:05;;;;;;;37.92;27.00;;;6.60;99.90;;;5.43;97.79;95388.06;5019909;28;20557;-75
2022/03/31 05:02:31;;;;;;;38.33;26.23;;;6.60;99.90;;;5.45;97.98;95381.50;5011506;28;20520;-74
2022/03/31 05:04:59;;;;;;;38.90;27.02;;;6.60;99.90;;;5.48;98.24;95377.59;5013149;28;20675;-73
2022/03/31 05:07:25;;;;;;;43.03;27.83;;;6.70;99.90;;;5.48;98.36;95388.09;5012652;28;20798;-73
2022/03/31 05:09:51;;;;;;;40.78;27.17;;;6.70;99.90;;;5.47;98.44;95385.72;5013009;28;20420;-73
2022/03/31 05:12:16;;;;;;;39.20;26.00;;;6.70;99.90;;;5.45;98.47;95376.28;5012566;28;20890;-73
2022/03/31 05:14:42;;;;;;;36.78;25.73;;;6.70;99.90;;;5.47;98.46;95383.88;5012976;28;20412;-74
2022/03/31 05:17:09;;;;;;;39.00;27.52;;;6.60;99.90;;;5.47;98.57;95380.47;5013844;28;20423;-73
2022/03/31 05:19:35;;;;;;;40.38;28.20;;;6.70;99.90;;;5.46;98.56;95382.31;5013652;28;20505;-70
2022/03/31 05:22:04;;;;;;;40.22;27.60;;;6.60;99.90;;;5.40;98.40;95380.75;5012510;28;20424;-72
2022/03/31 05:24:29;;;;;;;36.88;26.30;;;6.60;99.90;;;5.43;98.23;95372.34;5009067;28;20413;-72
2022/03/31 05:26:56;;;;;;;40.65;28.17;;;6.60;99.90;;;5.42;98.26;95383.88;5013037;28;20413;-72
2022/03/31 05:29:22;;;;;;;38.45;27.75;;;6.60;99.90;;;5.42;98.24;95391.75;5012957;28;20408;-72
2022/03/31 05:31:49;;;;;;;38.83;26.27;;;6.60;99.90;;;5.41;98.11;95390.97;5012777;28;20401;-71
2022/03/31 05:34:15;;;;;;;44.00;29.15;;;6.60;99.90;;;5.30;98.06;95384.19;5013435;28;20458;-73
2022/03/31 05:36:42;;;;;;;39.50;27.05;;;6.50;99.90;;;5.40;97.94;95378.13;5013664;28;20463;-73
2022/03/31 05:39:09;;;;;;;38.88;26.38;;;6.60;99.90;;;5.40;97.87;95375.50;5013609;28;20503;-73
2022/03/31 05:41:35;;;;;;;36.80;25.08;;;6.60;99.90;;;5.45;97.93;95375.47;5013163;28;20446;-74
2022/03/31 05:44:01;;;;;;;34.35;23.77;;;6.60;99.90;;;5.48;98.24;95379.41;5013340;28;20421;-74
2022/03/31 05:46:27;;;;;;;38.40;25.88;;;6.70;99.90;;;5.49;98.38;95381.00;5028782;28;20470;-74
2022/03/31 05:48:53;;;;;;;34.63;24.75;;;6.70;99.90;;;5.50;98.35;95379.91;5013510;28;20405;-74
2022/03/31 05:51:20;;;;;;;37.83;26.03;;;6.70;99.90;;;5.49;98.51;95375.75;5011454;28;20404;-74
2022/03/31 05:53:46;;;;;;;36.15;25.40;;;6.60;99.90;;;5.53;98.58;95374.16;5012783;28;20405;-74
2022/03/31 05:56:14;;;;;;;36.38;25.90;;;6.70;99.90;;;5.54;98.61;95376.50;5013202;28;20778;-73
2022/03/31 05:58:40;;;;;;;38.05;26.60;;;6.70;99.90;;;5.54;98.59;95381.75;5013343;28;20408;-73
2022/03/31 06:01:08;;;;;;;38.10;27.00;;;6.70;99.90;;;5.53;98.51;95377.56;5012513;28;20515;-73
2022/03/31 06:03:34;;;;;;;39.58;27.00;;;6.70;99.90;;;5.51;98.55;95382.28;5013030;28;20404;-74
2022/03/31 06:06:00;;;;;;;39.28;27.15;;;6.70;99.90;;;5.52;98.38;95386.47;5028376;28;20433;-74
2022/03/31 06:08:27;;;;;;;37.05;25.88;;;6.70;99.90;;;5.52;98.31;95383.84;5028237;28;20401;-72
2022/03/31 06:10:53;;;;;;;39.75;27.85;;;6.70;99.90;;;5.55;98.48;95377.28;5027770;28;20914;-72
2022/03/31 06:13:20;;;;;;;39.67;27.02;;;6.70;99.90;;;5.55;98.20;95382.53;5028235;28;20484;-72
2022/03/31 06:15:46;;;;;;;42.72;26.98;;;6.70;99.90;;;5.51;98.40;95382.28;5012956;28;20420;-72
2022/03/31 06:18:12;;;;;;;35.83;25.55;;;6.70;99.90;;;5.51;98.16;95384.91;5028186;28;20417;-72
2022/03/31 06:20:38;;;;;;;32.17;23.80;;;6.70;99.90;;;5.58;98.02;95377.53;5012300;28;20501;-72
2022/03/31 06:23:05;;;;;;;34.13;25.10;;;6.70;99.90;;;5.63;98.26;95384.63;5012660;28;20409;-72
2022/03/31 06:25:31;;;;;;;35.95;24.38;;;6.80;99.90;;;5.66;98.39;95389.31;5011508;28;20570;-72
2022/03/31 06:27:57;;;;;;;33.75;24.58;;;6.80;99.90;;;5.68;98.56;95381.97;5012691;28;20938;-72
2022/03/31 06:30:24;;;;;;;34.90;25.20;;;6.80;99.90;;;5.69;98.66;95373.81;5012153;28;20484;-72
2022/03/31 06:32:50;;;;;;;30.50;22.15;;;6.80;99.90;;;5.73;98.80;95384.56;5012816;28;20882;-72
2022/03/31 06:35:16;;;;;;;41.03;28.10;;;6.90;99.90;;;5.69;98.92;95376.44;5012552;28;20408;-72
2022/03/31 06:37:43;;;;;;;38.42;27.13;;;6.80;99.90;;;5.71;98.58;95373.56;5012535;28;20861;-71
2022/03/31 06:40:12;;;;;;;37.45;26.05;;;6.80;99.90;;;5.75;98.71;95387.72;5012366;28;20416;-72
2022/03/31 06:42:39;;;;;;;33.45;24.08;;;6.90;99.90;;;5.77;98.82;95377.72;5012364;28;20420;-72
2022/03/31 06:45:08;;;;;;;31.73;22.67;;;6.90;99.90;;;5.80;98.71;95380.59;5012189;28;20500;-72
2022/03/31 06:47:36;;;;;;;35.05;25.02;;;6.90;99.90;;;5.83;98.92;95381.91;5007602;28;20581;-73
2022/03/31 06:50:02;;;;;;;31.88;23.02;;;7.00;99.90;;;5.87;99.05;95382.91;5010686;28;20404;-73
2022/03/31 06:52:28;;;;;;;37.25;25.65;;;7.00;99.90;;;5.90;99.17;95371.91;5011851;28;20794;-72
2022/03/31 06:54:55;;;;;;;37.10;26.25;;;7.10;99.90;;;5.94;99.17;95374.81;5012095;28;20404;-75
2022/03/31 06:57:20;;;;;;;36.73;26.17;;;7.00;99.90;;;6.01;99.10;95367.41;5012042;28;20409;-72
2022/03/31 06:59:46;;;;;;;33.92;23.70;;;7.10;99.90;;;6.07;99.16;95371.56;5027349;28;20771;-71
2022/03/31 07:02:12;;;;;;;35.50;24.70;;;7.20;99.90;;;6.13;99.54;95378.34;5011677;28;20424;-72
2022/03/31 07:04:39;;;;;;;31.10;22.50;;;7.20;99.90;;;6.19;99.69;95377.28;5011361;28;20413;-72
2022/03/31 07:07:05;;;;;;;33.67;23.73;;;7.30;99.90;;;6.24;99.80;95379.84;5010070;28;20426;-73
2022/03/31 07:09:34;;;;;;;30.05;22.27;;;7.40;99.90;;;6.28;99.92;95378.25;5011715;28;20472;-72
2022/03/31 07:12:00;;;;;;;37.13;27.05;;;7.40;99.90;;;6.27;99.94;95370.66;5009620;28;20779;-71
2022/03/31 07:14:26;;;;;;;34.78;25.02;;;7.40;99.90;;;6.34;100.00;95366.66;5000482;28;20440;-71
2022/03/31 07:16:52;;;;;;;33.00;24.10;;;7.40;99.90;;;6.37;100.00;95363.50;5001079;28;20563;-70
2022/03/31 07:19:18;;;;;;;36.28;25.38;;;7.50;99.90;;;6.42;100.00;95354.78;5007791;28;20432;-73
2022/03/31 07:21:45;;;;;;;34.23;24.90;;;7.50;99.90;;;6.45;100.00;95360.28;5001988;28;20422;-72
2022/03/31 07:24:11;;;;;;;29.92;22.60;;;7.50;99.90;;;6.54;100.00;95361.25;5014934;28;20434;-74
2022/03/31 07:26:37;;;;;;;31.15;23.08;;;7.60;99.90;;;6.61;100.00;95358.34;5011232;28;20841;-74
2022/03/31 07:29:03;;;;;;;30.63;23.60;;;7.70;99.90;;;6.63;100.00;95358.03;5019192;28;20488;-73
2022/03/31 07:31:29;;;;;;;36.47;25.67;;;7.70;99.90;;;6.59;100.00;95353.34;5016885;28;20404;-74
2022/03/31 07:33:56;;;;;;;35.05;25.73;;;7.70;99.90;;;6.54;100.00;95356.00;5026101;28;20774;-74
2022/03/31 07:36:22;;;;;;;39.22;27.80;;;7.70;99.90;;;6.46;100.00;95361.06;5013522;28;20410;-73
2022/03/31 07:38:49;;;;;;;35.20;25.48;;;7.60;99.90;;;6.52;100.00;95352.88;5022884;28;20419;-73
2022/03/31 07:41:15;;;;;;;36.13;26.40;;;7.60;99.90;;;6.52;100.00;95354.72;5020082;28;20502;-72
2022/03/31 07:43:42;;;;;;;34.95;25.40;;;7.60;99.90;;;6.55;99.92;95351.53;5014969;28;20404;-71
2022/03/31 07:46:08;;;;;;;32.53;23.98;;;7.60;99.90;;;6.59;99.78;95353.34;5026393;28;20434;-72
2022/03/31 07:48:34;;;;;;;35.85;24.75;;;7.70;99.90;;;6.64;99.96;95352.50;5015012;28;20891;-72
2022/03/31 07:50:59;;;;;;;36.03;25.90;;;7.70;99.90;;;6.66;100.00;95345.13;5020640;28;20504;-71
2022/03/31 07:53:26;;;;;;;37.45;25.88;;;7.70;99.90;;;6.61;100.00;95340.69;5021910;28;20489;-73
2022/03/31 07:55:54;;;;;;;40.28;27.85;;;7.70;99.90;;;6.58;100.00;95341.25;5013728;28;20405;-73
2022/03/31 07:58:20;;;;;;;38.33;27.23;;;7.70;99.90;;;6.66;100.00;95352.25;5026215;28;20412;-73
2022/03/31 08:00:50;;;;;;;35.67;26.17;;;7.80;99.90;;;6.73;99.81;95353.50;5015792;28;20439;-73
2022/03/31 08:03:17;;;;;;;36.35;25.67;;;7.80;99.90;;;6.81;99.84;95346.84;5018547;28;20393;-74
2022/03/31 08:05:43;;;;;;;32.47;23.77;;;7.90;99.90;;;6.88;99.89;95348.09;5024094;28;20485;-71
2022/03/31 08:08:09;;;;;;;33.55;24.27;;;7.90;99.90;;;6.94;100.00;95346.19;5006737;28;20792;-73
2022/03/31 08:10:35;;;;;;;34.85;24.17;;;8.00;99.90;;;6.91;100.00;95349.41;5023468;28;20477;-72
2022/03/31 08:13:02;;;;;;;37.72;27.08;;;8.00;99.90;;;6.77;100.00;95346.59;5018387;28;20401;-72
2022/03/31 08:15:28;;;;;;;34.63;26.30;;;7.90;99.90;;;6.86;99.95;95344.94;5008238;28;20398;-71
2022/03/31 08:17:55;;;;;;;37.63;26.10;;;8.00;99.90;;;6.87;100.00;95343.91;5022331;28;20450;-71
2022/03/31 08:20:21;;;;;;;38.75;25.67;;;8.00;99.90;;;6.92;99.99;95343.06;5019547;28;21019;-71
2022/03/31 08:22:48;;;;;;;31.13;23.70;;;8.00;99.90;;;6.94;99.94;95346.19;5022232;28;20420;-72
2022/03/31 08:25:15;;;;;;;33.80;24.35;;;8.00;99.90;;;6.98;100.00;95344.59;5018845;28;20397;-72
2022/03/31 08:27:43;;;;;;;34.22;24.42;;;8.10;99.90;;;7.00;100.00;95340.59;5014851;28;20535;-72
2022/03/31 08:30:16;;;;;;;35.42;24.80;;;8.10;99.90;;;7.06;100.00;95338.72;5025227;28;20410;-72
2022/03/31 08:32:43;;;;;;;34.55;25.73;;;8.10;99.90;;;6.97;100.00;95337.75;5015104;28;20776;-71
2022/03/31 08:35:11;;;;;;;33.50;24.13;;;8.10;99.90;;;7.10;100.00;95336.31;5019211;28;20810;-71
2022/03/31 08:37:38;;;;;;;37.90;27.45;;;8.20;99.90;;;7.02;100.00;95342.19;5038158;28;20834;-72
2022/03/31 08:40:07;;;;;;;36.00;25.83;;;8.10;99.90;;;7.06;100.00;95336.09;5012339;28;20432;-72
2022/03/31 08:42:34;;;;;;;32.38;23.90;;;8.10;99.90;;;7.10;100.00;95342.38;5023646;28;20946;-72
2022/03/31 08:45:00;;;;;;;36.35;24.20;;;8.20;99.90;;;7.14;100.00;95345.22;5015961;28;20845;-71
2022/03/31 08:47:28;;;;;;;37.38;26.30;;;8.20;99.90;;;7.15;100.00;95337.03;5016585;28;20484;-72
2022/03/31 08:49:55;;;;;;;39.25;27.33;;;8.20;99.90;;;7.19;100.00;95332.03;5024909;28;20474;-72
2022/03/31 08:52:22;;;;;;;36.47;25.55;;;8.20;99.90;;;7.41;100.00;95327.03;5012042;28;20419;-72
2022/03/31 08:54:48;;;;;;;36.70;25.98;;;8.40;99.90;;;7.65;100.00;95327.81;5021574;28;20401;-72
2022/03/31 08:57:14;;;;;;;32.47;24.00;;;8.60;99.90;;;7.96;100.00;95320.28;5034693;28;20472;-72
2022/03/31 08:59:40;;;;;;;31.48;23.08;;;8.90;99.90;;;8.26;100.00;95321.72;5014458;28;20438;-72
2022/03/31 09:02:06;;;;;;;29.52;23.20;;;9.20;99.90;;;8.69;100.00;95311.03;5024979;28;20824;-72
2022/03/31 09:04:33;;;;;;;36.70;25.00;;;9.50;99.90;;;8.96;100.00;95320.84;5013389;28;20856;-71
2022/03/31 09:07:04;;;;;;;33.28;25.10;;;10.00;99.90;;;9.18;100.00;95318.34;5020308;28;20412;-72
2022/03/31 09:09:30;;;;;;;31.40;23.70;;;10.10;99.90;;;9.68;100.00;95320.03;5021379;28;20509;-73
2022/03/31 09:11:56;;;;;;;26.45;20.42;;;10.60;99.90;;;9.95;100.00;95321.03;5027090;28;20412;-71
2022/03/31 09:14:29;;;;;;;28.55;22.45;;;10.80;99.90;;;9.94;100.00;95317.63;4996091;28;20493;-71
2022/03/31 09:16:56;;;;;;;28.25;21.73;;;10.80;99.90;;;9.91;100.00;95328.78;5020603;28;20906;-71
2022/03/31 09:19:22;;;;;;;29.03;22.17;;;10.90;99.90;;;9.79;100.00;95323.22;5016322;28;20409;-70
2022/03/31 09:21:52;;;;;;;31.88;23.17;;;10.80;99.90;;;9.60;100.00;95319.94;5023494;28;20473;-72
2022/03/31 09:24:20;;;;;;;28.73;22.63;;;10.60;99.90;;;9.58;100.00;95322.06;5012176;28;20403;-72
2022/03/31 09:26:47;;;;;;;30.83;22.85;;;10.50;99.90;;;9.59;100.00;95321.78;5021421;28;20397;-72
2022/03/31 09:29:14;;;;;;;29.05;21.73;;;10.60;99.90;;;9.73;100.00;95324.41;5019115;28;20403;-72
2022/03/31 09:31:40;;;;;;;29.38;22.02;;;10.60;99.90;;;9.81;100.00;95313.16;5013909;28;20400;-73
2022/03/31 09:34:08;;;;;;;31.65;23.98;;;10.70;99.90;;;9.87;100.00;95321.75;5024756;28;20414;-72
2022/03/31 09:36:36;;;;;;;30.33;23.35;;;10.70;99.90;;;10.04;100.00;95312.13;5003973;28;20415;-73
2022/03/31 09:39:08;;;;;;;28.75;22.25;;;11.00;99.90;;;10.23;100.00;95301.41;5003923;28;20856;-72
2022/03/31 09:41:36;;;;;;;31.23;24.35;;;11.10;99.90;;;10.42;100.00;95307.31;5002774;28;20433;-71
2022/03/31 09:44:05;;;;;;;28.73;22.37;;;11.30;99.90;;;10.72;100.00;95305.81;5002366;28;20518;-73
2022/03/31 09:46:34;;;;;;;32.38;23.65;;;11.50;99.90;;;11.00;100.00;95303.00;5017359;22;20905;-71
2022/03/31 09:49:11;;;;;;;28.70;22.75;;;11.80;99.90;;;11.23;100.00;95307.94;5002890;28;20404;-72
2022/03/31 09:51:38;;;;;;;30.48;23.08;;;12.10;99.90;;;11.50;100.00;95304.28;4993693;28;20426;-72
2022/03/31 09:54:06;;;;;;;33.53;24.50;;;12.30;99.90;;;11.78;100.00;95302.22;5009735;28;20412;-71
2022/03/31 09:56:38;;;;;;;30.50;23.90;;;12.60;99.90;;;12.13;100.00;95295.09;4998337;28;20484;-71
2022/03/31 09:59:07;;;;;;;29.25;22.25;;;13.00;99.90;;;12.88;100.00;95285.78;5004074;28;20407;-73
2022/03/31 10:01:34;;;;;;;29.27;23.45;;;13.50;99.90;;;13.33;100.00;95286.13;5006105;28;20448;-70
2022/03/31 10:04:01;;;;;;;27.43;21.27;;;14.00;99.90;;;13.82;100.00;95287.31;4996484;28;20410;-71
2022/03/31 10:06:28;;;;;;;28.70;22.50;;;14.50;99.90;;;13.87;100.00;95281.78;5008750;28;20460;-71
2022/03/31 10:08:57;;;;;;;25.33;20.83;;;14.70;99.90;;;14.13;100.00;95289.59;5001133;28;20893;-72
2022/03/31 10:11:28;;;;;;;24.50;19.38;;;14.90;99.90;;;14.24;100.00;95290.75;5000883;28;20410;-71
2022/03/31 10:14:18;;;;;;;30.85;22.20;;;15.00;99.90;;;13.77;91.99;95292.00;5009313;28;20897;-72
2022/03/31 10:16:50;;;;;;;29.08;21.75;;;14.60;99.90;;;13.15;83.96;95293.41;4985924;28;20416;-72